Time;durP1;ratioP1;P1;durP2;ratioP2;P2;SDS_P1;SDS_P2;PMS_P1;PMS_P2;Temp;Humidity;BMP_temperature;BMP_pressure;BME280_temperature;BME280_humidity;BME280_pressure;Samples;Min_cycle;Max_cycle;Signal;HPM_P1;HPM_P2
2022/07/31 00:00:18;;;;;;;0.00;0.00;;;20.80;60.50;;;22.25;52.28;101776.47;2047097;28;20562;-89
2022/07/31 00:01:21;;;;;;;0.03;0.03;;;20.80;60.50;;;22.22;52.60;101789.03;2057202;28;20586;-88
2022/07/31 00:02:24;;;;;;;0.10;0.10;;;20.80;60.50;;;22.23;52.28;101783.13;2056399;28;20414;-88
2022/07/31 00:03:28;;;;;;;0.00;0.00;;;20.80;60.50;;;22.23;52.62;101784.31;2050693;28;20047;-88
2022/07/31 00:04:30;;;;;;;0.10;0.10;;;20.70;60.50;;;22.18;52.81;101782.75;2055388;28;20053;-87
2022/07/31 00:05:35;;;;;;;0.00;0.00;;;20.70;60.70;;;22.15;52.70;101776.06;2056249;28;20075;-88
2022/07/31 00:06:43;;;;;;;0.00;0.00;;;20.70;60.70;;;22.13;52.95;101783.16;2041101;29;20142;-87
2022/07/31 00:07:47;;;;;;;0.00;0.00;;;20.70;60.80;;;22.12;52.78;101784.31;2040250;29;20078;-88
2022/07/31 00:08:49;;;;;;;0.00;0.00;;;20.70;60.80;;;22.06;52.94;101780.41;2050284;28;20051;-89
2022/07/31 00:09:54;;;;;;;0.00;0.00;;;20.60;60.80;;;22.04;52.81;101778.06;2039197;29;20138;-88
2022/07/31 00:10:58;;;;;;;0.10;0.10;;;20.60;60.90;;;22.03;53.20;101786.69;2040893;28;20028;-91
2022/07/31 00:12:01;;;;;;;0.10;0.10;;;20.60;61.00;;;21.99;52.89;101786.69;2054392;28;20435;-88
2022/07/31 00:13:04;;;;;;;0.00;0.00;;;20.70;61.00;;;21.97;53.11;101783.59;2056181;28;20102;-88
2022/07/31 00:14:07;;;;;;;0.00;0.00;;;20.60;61.00;;;21.98;53.54;101787.88;2049061;29;20602;-88
2022/07/31 00:15:11;;;;;;;0.00;0.00;;;20.60;61.10;;;21.95;53.43;101791.44;2047675;28;20047;-90
2022/07/31 00:16:15;;;;;;;0.10;0.10;;;20.60;61.30;;;21.93;53.19;101787.50;2062689;28;20098;-88
2022/07/31 00:17:19;;;;;;;0.00;0.00;;;20.60;61.30;;;21.88;53.37;101783.19;2051492;28;20051;-88
2022/07/31 00:18:22;;;;;;;0.00;0.00;;;20.60;61.30;;;21.90;53.26;101791.03;2040222;28;20122;-89
2022/07/31 00:19:25;;;;;;;0.00;0.00;;;20.60;61.30;;;21.87;53.25;101784.38;2065963;28;20074;-88
2022/07/31 00:20:28;;;;;;;0.00;0.00;;;20.60;61.30;;;21.85;53.65;101792.22;2047433;29;20087;-89
2022/07/31 00:21:31;;;;;;;0.10;0.10;;;20.60;61.30;;;21.80;53.58;101773.38;2045493;28;20051;-89
2022/07/31 00:22:34;;;;;;;0.00;0.00;;;20.60;61.30;;;21.81;53.54;101785.94;2054333;28;20121;-89
2022/07/31 00:23:37;;;;;;;0.10;0.10;;;20.60;61.30;;;21.81;53.91;101788.69;2034234;29;20059;-89
2022/07/31 00:24:40;;;;;;;0.00;0.00;;;20.60;61.30;;;21.75;54.01;101776.53;2050414;28;20055;-88
2022/07/31 00:25:43;;;;;;;0.10;0.10;;;20.60;61.20;;;21.75;53.54;101779.28;2058213;28;20073;-89
2022/07/31 00:26:47;;;;;;;0.00;0.00;;;20.50;61.20;;;21.76;53.52;101777.28;2053236;28;20114;-88
2022/07/31 00:27:55;;;;;;;0.00;0.00;;;20.50;61.30;;;21.74;53.76;101785.91;2049479;28;20055;-89
2022/07/31 00:28:57;;;;;;;0.00;0.00;;;20.50;61.30;;;21.75;54.11;101781.19;2056624;28;20058;-89
2022/07/31 00:30:01;;;;;;;0.00;0.00;;;20.50;61.40;;;21.72;53.87;101780.00;2058126;28;20066;-89
2022/07/31 00:31:03;;;;;;;0.10;0.10;;;20.50;61.50;;;21.68;53.66;101773.75;2050007;28;20585;-88
2022/07/31 00:32:07;;;;;;;0.00;0.00;;;20.50;61.50;;;21.71;54.05;101774.91;2050384;28;20104;-89
2022/07/31 00:33:09;;;;;;;0.00;0.00;;;20.50;61.50;;;21.70;54.10;101774.13;2038956;29;20071;-89
2022/07/31 00:34:13;;;;;;;0.00;0.00;;;20.40;61.60;;;21.69;54.18;101780.78;2033210;29;20415;-87
2022/07/31 00:35:15;;;;;;;0.03;0.03;;;20.40;61.60;;;21.70;54.11;101778.84;2041384;28;20048;-89
2022/07/31 00:36:19;;;;;;;0.05;0.05;;;20.40;61.60;;;21.69;53.75;101778.06;2047268;28;20059;-89
2022/07/31 00:37:33;;;;;;;0.00;0.00;;;20.40;61.60;;;21.68;53.87;101767.44;2051433;28;20106;-88
2022/07/31 00:38:37;;;;;;;0.00;0.00;;;20.40;61.50;;;21.64;53.83;101764.72;2047555;28;20511;-89
2022/07/31 00:39:39;;;;;;;0.00;0.00;;;20.50;61.60;;;21.63;53.95;101768.63;2041092;29;20050;-88
2022/07/31 00:40:47;;;;;;;0.05;0.05;;;20.50;61.50;;;21.65;53.84;101774.53;2037107;28;20152;-89
2022/07/31 00:41:53;;;;;;;0.08;0.08;;;20.50;61.50;;;21.64;53.79;101767.47;2048195;28;20423;-88
2022/07/31 00:42:57;;;;;;;0.10;0.10;;;20.40;61.40;;;21.66;53.74;101759.59;2049586;28;20063;-89
2022/07/31 00:44:00;;;;;;;0.10;0.10;;;20.50;61.50;;;21.65;53.76;101755.28;2044721;28;20054;-89
2022/07/31 00:45:05;;;;;;;0.00;0.00;;;20.40;61.50;;;21.66;53.78;101758.84;2041561;29;20059;-89
2022/07/31 00:46:07;;;;;;;0.00;0.00;;;20.40;61.60;;;21.62;54.05;101761.56;2049595;28;20133;-89
2022/07/31 00:47:18;;;;;;;0.00;0.00;;;20.40;61.60;;;21.61;53.90;101765.47;2042058;28;20066;-88
2022/07/31 00:48:27;;;;;;;0.00;0.00;;;20.30;61.70;;;21.59;53.82;101762.38;2027027;29;20076;-89
2022/07/31 00:49:30;;;;;;;0.10;0.10;;;20.30;61.70;;;21.56;54.00;101763.16;2043596;28;20522;-87
2022/07/31 00:50:39;;;;;;;0.10;0.10;;;20.30;61.90;;;21.58;54.18;101763.53;2062334;28;20663;-88
2022/07/31 00:51:42;;;;;;;0.00;0.00;;;20.20;61.90;;;21.55;54.07;101761.56;2052047;28;20067;-85
2022/07/31 00:52:45;;;;;;;0.00;0.00;;;20.20;62.00;;;21.51;54.22;101754.50;2037500;29;20584;-86
2022/07/31 00:53:49;;;;;;;0.00;0.00;;;20.30;62.10;;;21.50;54.58;101756.44;2039371;28;20059;-86
2022/07/31 00:54:51;;;;;;;0.00;0.00;;;20.20;62.10;;;21.47;54.69;101748.22;2036900;29;20051;-86
2022/07/31 00:55:56;;;;;;;0.10;0.10;;;20.20;62.30;;;21.47;54.56;101742.72;2049985;28;20043;-87
2022/07/31 00:57:00;;;;;;;0.00;0.00;;;20.20;62.30;;;21.49;54.23;101752.16;2047228;29;20510;-85
2022/07/31 00:58:04;;;;;;;0.00;0.00;;;20.20;62.30;;;21.49;54.60;101746.66;2049924;28;20078;-86
2022/07/31 00:59:07;;;;;;;0.10;0.10;;;20.20;62.40;;;21.49;54.22;101735.66;2056186;28;20399;-85
2022/07/31 01:00:12;;;;;;;0.00;0.00;;;20.20;62.50;;;21.47;54.14;101749.00;2048010;29;20054;-86
2022/07/31 01:01:16;;;;;;;0.00;0.00;;;20.10;62.40;;;21.49;54.60;101743.91;2041564;28;20460;-87
2022/07/31 01:02:19;;;;;;;0.00;0.00;;;20.20;62.40;;;21.47;54.39;101732.50;2039604;29;20051;-85
2022/07/31 01:03:22;;;;;;;0.00;0.00;;;20.10;62.40;;;21.52;54.03;101745.06;2042037;28;20051;-86
2022/07/31 01:04:25;;;;;;;0.03;0.03;;;20.20;62.50;;;21.51;54.42;101733.31;2047712;28;20063;-86
2022/07/31 01:05:29;;;;;;;0.00;0.00;;;20.10;62.50;;;21.49;54.11;101741.16;2056507;28;20122;-86
2022/07/31 01:06:32;;;;;;;0.00;0.00;;;20.10;62.50;;;21.53;54.56;101746.66;2061434;28;20058;-86
2022/07/31 01:07:37;;;;;;;0.00;0.00;;;20.10;62.50;;;21.52;54.45;101743.13;2054977;28;20137;-86
2022/07/31 01:08:43;;;;;;;0.00;0.00;;;20.20;62.50;;;21.50;54.40;101736.44;2041319;28;20108;-89
2022/07/31 01:09:47;;;;;;;0.00;0.00;;;20.10;62.50;;;21.52;54.52;101743.13;2033124;29;20048;-88
2022/07/31 01:10:59;;;;;;;0.00;0.00;;;20.10;62.60;;;21.48;54.39;101734.09;2049629;28;20048;-88
2022/07/31 01:12:12;;;;;;;0.00;0.00;;;20.10;62.70;;;21.51;54.49;101738.00;2062844;28;20069;-90
2022/07/31 01:13:27;;;;;;;0.00;0.00;;;20.10;62.80;;;21.48;54.00;101738.78;2065043;28;20434;-87
2022/07/31 01:14:35;;;;;;;0.10;0.10;;;20.10;62.70;;;21.44;54.59;101733.28;2049904;28;20393;-88
2022/07/31 01:15:40;;;;;;;0.00;0.00;;;20.10;62.60;;;21.37;54.45;101725.06;2044120;29;20435;-88
2022/07/31 01:16:50;;;;;;;0.00;0.00;;;20.20;62.60;;;21.34;54.80;101723.09;2053603;28;20282;-89
2022/07/31 01:17:53;;;;;;;0.10;0.10;;;20.20;62.50;;;21.35;54.87;101724.66;2055763;28;20547;-89
2022/07/31 01:18:58;;;;;;;0.10;0.10;;;20.20;62.30;;;21.33;54.63;101726.22;2048608;29;20051;-89
2022/07/31 01:20:01;;;;;;;0.10;0.10;;;20.20;62.20;;;21.36;54.75;101728.97;2047265;28;20070;-88
2022/07/31 01:21:11;;;;;;;0.00;0.00;;;20.30;62.10;;;21.39;54.59;101728.19;2048198;28;20054;-89
2022/07/31 01:22:44;;;;;;;0.00;0.00;;;20.30;62.00;;;21.43;54.51;101729.00;2047141;28;20502;-88
2022/07/31 01:24:21;;;;;;;0.10;0.10;;;20.30;62.10;;;21.44;54.43;101722.31;2051271;28;20066;-89
2022/07/31 01:25:55;;;;;;;0.00;0.00;;;20.40;61.90;;;21.49;54.34;101724.66;2058701;28;20054;-86
2022/07/31 01:27:10;;;;;;;0.10;0.10;;;20.40;61.70;;;21.44;54.09;101719.56;2058644;28;20059;-86
2022/07/31 01:28:27;;;;;;;0.00;0.00;;;20.40;61.50;;;21.42;54.53;101724.66;2055184;28;20093;-86
2022/07/31 01:29:40;;;;;;;0.00;0.00;;;20.40;61.50;;;21.41;54.49;101723.09;2043369;29;20047;-87
2022/07/31 01:30:49;;;;;;;0.00;0.00;;;20.40;61.50;;;21.39;54.59;101725.44;2049557;28;20051;-86
2022/07/31 01:32:18;;;;;;;0.10;0.10;;;20.40;61.50;;;21.34;54.58;101714.06;2052497;28;20054;-87
2022/07/31 01:33:46;;;;;;;0.00;0.00;;;20.30;61.40;;;21.32;54.68;101717.22;2041743;29;20087;-86
2022/07/31 01:34:57;;;;;;;0.10;0.10;;;20.40;61.50;;;21.33;54.56;101727.00;2044224;29;20075;-85
2022/07/31 01:36:08;;;;;;;0.10;0.10;;;20.30;61.60;;;21.29;54.88;101718.00;2031510;29;20067;-85
2022/07/31 01:37:19;;;;;;;0.10;0.10;;;20.40;61.70;;;21.33;54.80;101720.72;2044156;28;20534;-86
2022/07/31 01:38:36;;;;;;;0.10;0.10;;;20.30;61.70;;;21.32;54.47;101719.97;2048049;28;20130;-85
2022/07/31 01:39:54;;;;;;;0.10;0.10;;;20.20;61.60;;;21.33;54.72;101718.78;2050736;28;20522;-86
2022/07/31 01:41:03;;;;;;;0.10;0.10;;;20.20;61.70;;;21.30;54.88;101721.50;2048038;28;20138;-86
2022/07/31 01:42:09;;;;;;;0.03;0.03;;;20.20;61.70;;;21.25;55.22;101703.47;2050276;28;20124;-86
2022/07/31 01:43:18;;;;;;;0.03;0.03;;;20.30;61.70;;;21.17;55.26;101707.38;2048570;28;20051;-86
2022/07/31 01:44:25;;;;;;;0.10;0.10;;;20.20;61.70;;;21.15;55.41;101704.25;2049688;28;20055;-86
2022/07/31 01:45:34;;;;;;;0.03;0.03;;;20.20;61.70;;;21.13;55.06;101703.84;2056101;28;20055;-86
2022/07/31 01:46:38;;;;;;;0.10;0.10;;;20.20;61.90;;;21.10;55.51;101701.88;2040280;29;20059;-89
2022/07/31 01:47:45;;;;;;;0.08;0.08;;;20.20;61.90;;;21.07;55.39;101699.94;2041694;29;20051;-90
2022/07/31 01:48:50;;;;;;;0.00;0.00;;;20.30;61.90;;;21.04;55.76;101697.19;2047616;28;20047;-88
2022/07/31 01:49:57;;;;;;;0.00;0.00;;;20.20;61.90;;;21.03;55.47;101696.38;2054512;28;20074;-89
2022/07/31 01:51:02;;;;;;;0.08;0.08;;;20.20;61.80;;;21.02;55.62;101699.50;2047267;29;20047;-88
2022/07/31 01:52:06;;;;;;;0.00;0.00;;;20.20;61.90;;;21.03;55.79;101699.13;2041697;29;20052;-88
2022/07/31 01:53:12;;;;;;;0.00;0.00;;;20.20;61.80;;;21.06;55.72;101695.59;2051776;28;20725;-87
2022/07/31 01:54:18;;;;;;;0.00;0.00;;;20.20;61.90;;;21.11;55.36;101695.22;2056660;28;20529;-88
2022/07/31 01:55:24;;;;;;;0.00;0.00;;;20.20;62.00;;;21.16;55.33;101700.31;2063265;28;20125;-88
2022/07/31 01:56:31;;;;;;;0.10;0.10;;;20.20;62.10;;;21.17;55.10;101692.88;2046119;28;20689;-88
2022/07/31 01:57:36;;;;;;;0.00;0.00;;;20.10;62.20;;;21.18;55.23;101692.50;2057230;28;20086;-89
2022/07/31 01:58:41;;;;;;;0.00;0.00;;;20.10;62.30;;;21.23;55.34;101705.81;2047050;28;20054;-89
2022/07/31 02:00:10;;;;;;;0.00;0.00;;;20.00;62.50;;;21.23;54.78;101689.31;2045238;28;20565;-89
2022/07/31 02:01:36;;;;;;;0.00;0.00;;;20.10;62.60;;;21.24;54.81;101701.91;2052948;28;20486;-89
2022/07/31 02:02:44;;;;;;;0.00;0.00;;;20.00;62.80;;;21.22;55.27;101700.69;2058153;28;20047;-88
2022/07/31 02:03:49;;;;;;;0.00;0.00;;;20.00;62.90;;;21.19;55.12;101702.28;2057093;28;20059;-89
2022/07/31 02:04:59;;;;;;;0.00;0.00;;;19.90;63.10;;;21.15;55.27;101700.72;2052231;28;20051;-88
2022/07/31 02:06:02;;;;;;;0.00;0.00;;;19.90;63.10;;;21.12;55.60;101704.25;2056525;28;20518;-88
2022/07/31 02:07:07;;;;;;;0.00;0.00;;;19.90;63.20;;;21.07;56.04;101697.19;2065049;28;20469;-89
2022/07/31 02:08:13;;;;;;;0.03;0.03;;;19.90;63.30;;;21.03;55.89;101695.59;2065940;28;20186;-88
2022/07/31 02:09:21;;;;;;;0.00;0.00;;;19.90;63.50;;;21.05;55.66;101694.03;2056248;28;20070;-89
2022/07/31 02:10:24;;;;;;;0.10;0.10;;;19.80;63.70;;;21.08;55.87;101704.25;2057664;28;20058;-89
2022/07/31 02:11:28;;;;;;;0.00;0.00;;;19.80;63.80;;;21.05;55.77;101702.28;2060856;28;20053;-88
2022/07/31 02:12:36;;;;;;;0.00;0.00;;;19.80;63.90;;;21.05;55.76;101704.22;2059911;28;20130;-90
2022/07/31 02:13:40;;;;;;;0.00;0.00;;;19.80;64.10;;;21.02;55.93;101699.50;2047622;28;20096;-90
2022/07/31 02:14:45;;;;;;;0.00;0.00;;;19.80;64.10;;;21.02;56.20;101694.81;2056859;28;20055;-88
2022/07/31 02:15:50;;;;;;;0.00;0.00;;;19.80;64.20;;;21.03;55.96;101701.88;2074131;28;20413;-88
2022/07/31 02:16:59;;;;;;;0.00;0.00;;;19.80;64.30;;;21.04;56.25;101695.19;2064126;28;20535;-89
2022/07/31 02:18:22;;;;;;;0.00;0.00;;;19.80;64.40;;;21.06;55.72;101692.09;2066030;28;20049;-89
2022/07/31 02:19:47;;;;;;;0.00;0.00;;;19.70;64.50;;;21.04;56.21;101697.94;2072424;28;20109;-89
2022/07/31 02:21:01;;;;;;;0.03;0.03;;;19.70;64.50;;;20.98;56.00;101693.25;2059025;28;20059;-89
2022/07/31 02:22:05;;;;;;;0.00;0.00;;;19.70;64.60;;;20.95;56.56;101692.03;2055144;28;20127;-89
2022/07/31 02:23:08;;;;;;;0.00;0.00;;;19.70;64.70;;;20.93;56.38;101688.88;2046340;28;20076;-88
2022/07/31 02:24:12;;;;;;;0.10;0.10;;;19.70;65.00;;;20.95;56.69;101694.75;2042476;28;21027;-89
2022/07/31 02:25:14;;;;;;;0.00;0.00;;;19.70;65.20;;;20.93;56.89;101688.88;2040342;28;20077;-89
2022/07/31 02:26:19;;;;;;;0.00;0.00;;;19.70;65.30;;;20.93;57.22;101685.38;2058116;28;20055;-89
2022/07/31 02:27:23;;;;;;;0.00;0.00;;;19.70;65.50;;;20.92;57.24;101684.56;2065487;28;20049;-88
2022/07/31 02:28:51;;;;;;;0.00;0.00;;;19.70;65.80;;;20.95;57.44;101683.78;2059270;28;20066;-86
2022/07/31 02:29:56;;;;;;;0.00;0.00;;;19.60;66.00;;;20.93;57.38;101686.13;2065358;28;20143;-86
2022/07/31 02:31:01;;;;;;;0.00;0.00;;;19.60;66.30;;;20.93;57.74;101679.88;2059931;28;20070;-86
2022/07/31 02:32:07;;;;;;;0.00;0.00;;;19.60;66.50;;;20.90;57.72;101675.94;2065046;28;20121;-87
2022/07/31 02:33:16;;;;;;;0.00;0.00;;;19.60;66.70;;;20.88;57.53;101678.31;2072240;28;20054;-86
2022/07/31 02:34:22;;;;;;;;;;;19.50;66.80;;;20.89;57.29;101674.38;2051342;28;20109;-85
2022/07/31 02:35:31;;;;;;;0.10;0.10;;;19.50;67.10;;;20.81;57.69;101670.03;2046373;28;19986;-86
2022/07/31 02:36:36;;;;;;;0.00;0.00;;;19.50;66.50;;;20.80;58.00;101673.97;2064099;28;20050;-85
2022/07/31 02:37:41;;;;;;;0.00;0.00;;;19.60;66.70;;;20.73;58.34;101665.72;2060963;28;20076;-86
2022/07/31 02:38:47;;;;;;;0.00;0.00;;;19.60;67.30;;;20.72;58.50;101666.91;2064177;28;20078;-86
2022/07/31 02:39:53;;;;;;;0.00;0.00;;;19.60;66.70;;;20.70;58.61;101663.75;2062952;28;20051;-86
2022/07/31 02:41:01;;;;;;;0.00;0.00;;;19.60;66.60;;;20.67;58.40;101667.28;2048695;28;20051;-85
2022/07/31 02:42:05;;;;;;;0.00;0.00;;;19.60;66.60;;;20.67;58.39;101661.78;2058973;28;20074;-85
2022/07/31 02:43:11;;;;;;;0.00;0.00;;;19.70;66.60;;;20.71;58.53;101662.56;2072213;28;20578;-84
2022/07/31 02:44:15;;;;;;;0.00;0.00;;;19.60;66.50;;;20.71;58.39;101668.03;2057659;28;20105;-86
2022/07/31 02:45:28;;;;;;;0.00;0.00;;;19.60;66.30;;;20.73;58.33;101660.22;2058168;28;20431;-85
2022/07/31 02:46:32;;;;;;;0.00;0.00;;;19.60;66.30;;;20.75;58.35;101666.13;2063933;28;20461;-86
2022/07/31 02:47:37;;;;;;;0.00;0.00;;;19.60;66.40;;;20.71;58.21;101657.88;2055583;28;20527;-86
2022/07/31 02:48:45;;;;;;;0.00;0.00;;;19.60;66.50;;;20.71;58.23;101654.31;2048099;28;20082;-86
2022/07/31 02:49:50;;;;;;;0.00;0.00;;;19.60;66.40;;;20.76;57.82;101670.41;2043682;28;20593;-85
2022/07/31 02:50:54;;;;;;;0.00;0.00;;;19.60;66.40;;;20.72;57.96;101664.16;2055493;28;20065;-86
2022/07/31 02:51:57;;;;;;;0.00;0.00;;;19.60;66.30;;;20.72;58.15;101664.91;2063831;28;20054;-86
2022/07/31 02:53:02;;;;;;;0.03;0.03;;;19.60;66.30;;;20.73;58.13;101665.72;2064302;28;20530;-87
2022/07/31 02:54:06;;;;;;;0.10;0.10;;;19.60;66.50;;;20.74;58.32;101667.25;2072242;28;20406;-86
2022/07/31 02:55:09;;;;;;;0.00;0.00;;;19.60;66.50;;;20.76;58.23;101670.41;2052385;28;20142;-84
2022/07/31 02:56:14;;;;;;;0.00;0.00;;;19.60;66.60;;;20.76;58.02;101676.69;2052279;28;20051;-85
2022/07/31 02:57:17;;;;;;;0.00;0.00;;;19.50;66.50;;;20.75;57.94;101675.13;2051567;28;20113;-86
2022/07/31 02:58:20;;;;;;;0.00;0.00;;;19.50;66.60;;;20.72;57.99;101677.88;2048474;28;20122;-85
2022/07/31 02:59:23;;;;;;;0.00;0.00;;;19.50;66.60;;;20.72;58.02;101680.63;2051954;28;20578;-85
2022/07/31 03:00:36;;;;;;;0.00;0.00;;;19.50;66.60;;;20.71;57.94;101684.50;2066300;28;20113;-85
2022/07/31 03:01:39;;;;;;;0.00;0.00;;;19.50;66.60;;;20.67;58.05;101672.75;2064429;28;20458;-85
2022/07/31 03:02:43;;;;;;;0.00;0.00;;;19.50;66.50;;;20.68;58.09;101680.59;2057971;28;20074;-85
2022/07/31 03:03:47;;;;;;;0.00;0.00;;;19.50;66.60;;;20.67;58.10;101670.00;2047533;28;20051;-86
2022/07/31 03:04:50;;;;;;;0.00;0.00;;;19.50;66.60;;;20.71;58.00;101670.78;2043098;28;20052;-86
2022/07/31 03:05:53;;;;;;;0.00;0.00;;;19.60;66.50;;;20.69;58.14;101670.41;2049346;28;20074;-86
2022/07/31 03:06:58;;;;;;;0.00;0.00;;;19.60;66.50;;;20.71;58.03;101673.53;2054113;28;20054;-86
2022/07/31 03:08:01;;;;;;;0.00;0.00;;;19.60;66.30;;;20.70;57.75;101667.28;2054671;28;20042;-86
2022/07/31 03:09:05;;;;;;;0.10;0.00;;;19.50;66.20;;;20.68;57.58;101663.34;2040233;29;20489;-86
2022/07/31 03:10:10;;;;;;;0.00;0.00;;;19.50;66.10;;;20.66;57.70;101660.22;2045280;28;20111;-87
2022/07/31 03:11:17;;;;;;;0.00;0.00;;;19.60;66.10;;;20.67;57.50;101662.56;2045229;28;20471;-86
2022/07/31 03:12:25;;;;;;;0.00;0.00;;;19.50;65.90;;;20.68;57.57;101666.09;2061466;28;20046;-86
2022/07/31 03:13:31;;;;;;;0.03;0.03;;;19.50;65.80;;;20.67;57.67;101665.31;2054505;28;20055;-85
2022/07/31 03:14:36;;;;;;;0.00;0.00;;;19.50;65.70;;;20.64;57.50;101657.06;2058521;28;20058;-86
2022/07/31 03:15:41;;;;;;;0.10;0.10;;;19.50;65.70;;;20.67;57.49;101670.81;2057816;28;20089;-86
2022/07/31 03:16:53;;;;;;;0.10;0.10;;;19.50;65.50;;;20.64;57.23;101660.59;2062839;28;20052;-87
2022/07/31 03:18:10;;;;;;;0.00;0.00;;;19.50;65.50;;;20.66;57.21;101665.72;2064547;28;20046;-86
2022/07/31 03:19:22;;;;;;;0.00;0.00;;;19.50;65.50;;;20.63;57.21;101655.47;2058473;28;20082;-86
2022/07/31 03:20:30;;;;;;;0.00;0.00;;;19.50;65.40;;;20.62;57.10;101651.19;2048261;28;20055;-86
2022/07/31 03:21:36;;;;;;;0.00;0.00;;;19.50;65.40;;;20.61;57.15;101650.38;2050478;28;20058;-86
2022/07/31 03:22:44;;;;;;;0.10;0.10;;;19.50;65.40;;;20.58;57.22;101648.41;2056631;28;20059;-86
2022/07/31 03:23:51;;;;;;;0.00;0.00;;;19.50;65.40;;;20.55;57.26;101642.94;2058286;28;20043;-85
2022/07/31 03:24:59;;;;;;;0.00;0.00;;;19.40;65.30;;;20.50;57.22;101641.34;2051238;28;20495;-86
2022/07/31 03:26:09;;;;;;;0.10;0.10;;;19.40;65.30;;;20.47;57.60;101631.16;2058374;28;20106;-85
2022/07/31 03:27:14;;;;;;;0.10;0.10;;;19.40;65.40;;;20.46;57.42;101634.28;2051790;28;20047;-85
2022/07/31 03:28:21;;;;;;;0.00;0.00;;;19.40;65.40;;;20.46;57.68;101635.06;2048725;28;20157;-86
2022/07/31 03:29:38;;;;;;;0.00;0.00;;;19.40;65.50;;;20.45;57.47;101632.72;2042714;28;20074;-85
2022/07/31 03:30:47;;;;;;;0.00;0.00;;;19.40;65.70;;;20.45;57.54;101629.97;2057709;28;20139;-87
2022/07/31 03:31:57;;;;;;;0.00;0.00;;;19.30;65.60;;;20.40;57.63;101625.66;2065518;28;20058;-86
2022/07/31 03:33:07;;;;;;;0.00;0.00;;;19.30;65.70;;;20.36;57.73;101621.34;2050956;28;20527;-85
2022/07/31 03:34:14;;;;;;;0.00;0.00;;;19.30;65.90;;;20.35;57.83;101627.97;2048398;28;20182;-85
2022/07/31 03:35:20;;;;;;;0.00;0.00;;;19.20;65.90;;;20.32;57.92;101623.28;2055442;28;20466;-86
2022/07/31 03:36:28;;;;;;;0.00;0.00;;;19.20;66.00;;;20.27;57.98;101612.66;2050123;28;20058;-86
2022/07/31 03:37:36;;;;;;;0.10;0.10;;;19.20;66.10;;;20.28;58.20;101609.53;2055838;28;20047;-86
2022/07/31 03:38:45;;;;;;;0.10;0.10;;;19.20;66.20;;;20.27;58.30;101609.94;2061262;28;20529;-87
2022/07/31 03:40:13;;;;;;;0.10;0.10;;;19.20;66.30;;;20.29;58.12;101618.56;2058770;28;20046;-87
2022/07/31 03:41:20;;;;;;;0.08;0.08;;;19.10;66.50;;;20.27;58.18;101623.63;2058144;28;20047;-85
2022/07/31 03:42:27;;;;;;;0.00;0.00;;;19.10;66.60;;;20.23;58.35;101631.09;2063782;28;20050;-84
2022/07/31 03:43:34;;;;;;;0.00;0.00;;;19.00;66.80;;;20.20;58.47;101623.63;2053658;28;20094;-86
2022/07/31 03:44:56;;;;;;;0.00;0.00;;;19.00;66.80;;;20.16;58.63;101622.81;2057243;28;20781;-85
2022/07/31 03:46:00;;;;;;;0.10;0.10;;;19.00;67.10;;;20.14;58.54;101616.94;2054101;28;20051;-86
2022/07/31 03:47:10;;;;;;;0.10;0.10;;;19.00;67.20;;;20.11;58.79;101612.19;2052291;28;20055;-86
2022/07/31 03:48:20;;;;;;;0.00;0.00;;;19.00;67.10;;;20.09;58.87;101614.56;2056723;28;20059;-86
2022/07/31 03:49:25;;;;;;;0.10;0.10;;;19.00;67.30;;;20.06;59.08;101620.81;2065819;28;20164;-87
2022/07/31 03:50:30;;;;;;;0.00;0.00;;;19.00;67.40;;;20.04;58.97;101612.19;2048188;28;20051;-86
2022/07/31 03:51:36;;;;;;;0.10;0.10;;;19.00;67.50;;;20.06;59.24;101626.28;2056181;28;20090;-86
2022/07/31 03:52:45;;;;;;;0.00;0.00;;;18.90;67.50;;;20.05;59.48;101627.44;2064643;28;20049;-89
2022/07/31 03:53:52;;;;;;;0.00;0.00;;;18.90;67.60;;;20.02;59.06;101622.72;2048483;28;20526;-88
2022/07/31 03:55:29;;;;;;;0.10;0.10;;;18.90;68.30;;;20.02;59.17;101617.25;2042422;28;20062;-90
2022/07/31 03:56:37;;;;;;;0.05;0.05;;;18.90;67.70;;;20.01;59.09;101619.19;2055412;28;20093;-90
2022/07/31 03:57:46;;;;;;;0.00;0.00;;;18.90;67.80;;;20.01;59.48;101619.19;2057119;28;20042;-89
2022/07/31 03:58:55;;;;;;;0.10;0.10;;;18.90;67.80;;;20.01;59.19;101612.94;2042370;28;20312;-90
2022/07/31 04:00:03;;;;;;;0.00;0.00;;;18.90;67.90;;;20.02;59.29;101617.25;2058001;28;20185;-89
2022/07/31 04:01:22;;;;;;;;;;;18.90;67.90;;;20.02;58.76;101620.78;2062902;28;20250;-88
2022/07/31 04:02:35;;;;;;;0.10;0.10;;;18.90;68.40;;;20.03;59.15;101613.31;2057017;28;19906;-89
2022/07/31 04:04:03;;;;;;;0.03;0.03;;;18.80;67.80;;;19.98;59.10;101617.22;2031487;28;20879;-88
2022/07/31 04:05:14;;;;;;;0.00;0.00;;;18.80;68.00;;;19.95;59.36;101611.72;2059119;28;20047;-89
2022/07/31 04:06:23;;;;;;;0.00;0.00;;;18.80;67.90;;;19.95;59.44;101618.00;2066287;28;20498;-89
2022/07/31 04:07:27;;;;;;;0.10;0.10;;;18.90;68.00;;;19.92;59.62;101616.03;2063107;28;20550;-88
2022/07/31 04:08:30;;;;;;;0.00;0.00;;;18.90;68.00;;;19.94;59.47;101610.16;2056586;28;20123;-90
2022/07/31 04:09:33;;;;;;;0.10;0.10;;;18.90;68.10;;;19.95;59.69;101611.72;2048860;28;20162;-89
2022/07/31 04:10:42;;;;;;;0.00;0.00;;;18.90;68.10;;;19.94;59.76;101607.44;2049233;28;20062;-88
2022/07/31 04:11:47;;;;;;;0.10;0.10;;;18.90;68.30;;;19.96;59.64;101613.31;2047438;28;20055;-85
2022/07/31 04:12:51;;;;;;;0.00;0.00;;;18.80;68.20;;;19.99;59.50;101618.03;2058542;28;20094;-85
2022/07/31 04:13:55;;;;;;;0.00;0.00;;;18.90;68.30;;;19.97;59.72;101609.41;2063906;28;20065;-86
2022/07/31 04:14:58;;;;;;;0.10;0.10;;;18.80;68.30;;;19.97;59.67;101617.63;2063120;28;20050;-86
2022/07/31 04:16:00;;;;;;;0.00;0.00;;;18.90;68.40;;;19.90;59.90;101612.13;2049377;29;20054;-85
2022/07/31 04:17:04;;;;;;;0.10;0.10;;;18.80;68.40;;;19.95;59.83;101612.53;2036134;29;20436;-88
2022/07/31 04:18:07;;;;;;;0.00;0.00;;;18.80;68.40;;;19.98;59.81;101613.72;2051463;28;20114;-88
2022/07/31 04:19:18;;;;;;;0.10;0.10;;;18.80;68.60;;;20.00;59.60;101616.84;2049674;28;20050;-87
2022/07/31 04:20:22;;;;;;;0.00;0.00;;;18.80;68.70;;;19.97;59.70;101612.94;2038313;29;20082;-88
2022/07/31 04:21:24;;;;;;;0.00;0.00;;;18.80;68.80;;;19.96;60.02;101599.59;2034077;29;20048;-89
2022/07/31 04:22:28;;;;;;;0.00;0.00;;;18.80;68.80;;;19.96;59.72;101596.88;2041145;28;20079;-90
2022/07/31 04:23:33;;;;;;;0.10;0.10;;;18.80;68.90;;;19.96;60.00;101597.66;2062111;28;20061;-89
2022/07/31 04:24:49;;;;;;;0.10;0.10;;;18.80;69.00;;;19.95;60.13;101598.03;2057533;28;20062;-90
2022/07/31 04:26:11;;;;;;;0.00;0.00;;;18.80;68.90;;;19.97;59.80;101595.69;2048807;28;20530;-88
2022/07/31 04:27:30;;;;;;;0.10;0.10;;;18.80;69.60;;;19.94;60.07;101590.97;2059240;28;20073;-90
2022/07/31 04:28:33;;;;;;;0.10;0.10;;;18.80;69.00;;;19.95;60.14;101598.03;2053276;28;20042;-89
2022/07/31 04:29:36;;;;;;;0.00;0.00;;;18.80;69.10;;;19.92;60.34;101596.84;2048301;28;20063;-87
2022/07/31 04:30:39;;;;;;;0.10;0.10;;;18.80;69.10;;;19.94;60.10;101585.50;2049669;28;20500;-88
2022/07/31 04:31:43;;;;;;;0.10;0.10;;;18.80;69.10;;;19.94;60.41;101597.25;2052760;28;20051;-88
2022/07/31 04:32:50;;;;;;;0.10;0.10;;;18.80;69.10;;;19.96;60.33;101588.66;2047237;28;20047;-89
2022/07/31 04:33:56;;;;;;;0.10;0.10;;;18.80;69.10;;;19.98;60.32;101591.78;2047123;29;20105;-89
2022/07/31 04:35:01;;;;;;;0.08;0.08;;;18.80;69.10;;;19.99;60.31;101594.16;2050402;28;20051;-89
2022/07/31 04:36:05;;;;;;;0.08;0.08;;;18.90;69.20;;;20.00;60.34;101586.69;2040780;29;20480;-89
2022/07/31 04:37:28;;;;;;;0.00;0.00;;;18.90;69.20;;;19.98;60.08;101587.06;2037880;29;20523;-89
2022/07/31 04:38:32;;;;;;;0.00;0.00;;;18.80;69.20;;;20.00;60.23;101589.44;2042389;28;20532;-88
2022/07/31 04:39:35;;;;;;;0.10;0.10;;;18.80;69.20;;;20.01;60.32;101580.06;2055077;28;20133;-88
2022/07/31 04:40:40;;;;;;;0.10;0.10;;;18.90;69.30;;;20.00;60.22;101575.72;2045248;29;20101;-89